Startpagina
METAR-TAF:

METAR-TAF

Vliegvelden :

Bahrein, Bahrein

Internationale luchthaven van Bahrein

breedte: 26-16N, lengte: 050-39E, hoogte: 2 m

Actueel weer

Dit bericht is 32 minuten geleden gemaakt, om 04:00 UTC
Wind 5 kt uit het oosten
Temperatuur 37°C
Vochtigheid 57%
Druk 999 hPa
Zicht 10 km of meer
geen wolken onder 1500 m en geen cumulonimbus

METAR: OBBI 230400Z 08005KT CAVOK 37/27 Q0999 NOSIG

Tijdstip: 07:32 (04:32 UTC)

Verwachting

Dit bericht is 5 uur en het 32 minuten geleden gemaakt, om 23:00 UTC
Verwachting geldig van 23 om 00 UTC tot 24 om 06 UTC
Wind 10 kt uit het oostzuidoosten
Zicht 10 km of meer
geen wolken onder 1500 m en geen cumulonimbus
Wijzigt naar
van 24 om 01 UTC tot 24 om 03 UTC
Wind 5 kt uit variabele richting
Kans 30% :
Tijdelijke
van 24 om 01 UTC tot 24 om 06 UTC
Zicht: 5000 m
Heiigheid

TAF: OBBI 222300Z 2300/2406 11010KT CAVOK BECMG 2401/2403 VRB05KT PROB30 TEMPO 2401/2406 5000 HZ NSC

Waarnemingen en weersverwachtingen van meer dan 4000 vliegvelden (METAR en TAF).

De beschikbare stations zijn de gele en rode punten op de kaart.

Ga met uw muis naar het station om de naam te zien.

Klik dan om waarnemingen en weersverwachtingen te zien.

kaart wijzigen: klik op de groene knoppen met een zwart kruis om in te zoomen, op de groene knop met een streepje om uit te zoomen of op de groene pijlen voor aangrenzende kaarten.


METAR-TAF: